createdAt,value
2024-01-06T00:02:32.592Z,16.40
2024-01-06T00:05:24.529Z,16.90
2024-01-06T00:08:32.385Z,16.10
2024-01-06T00:11:41.403Z,16.70
2024-01-06T00:14:48.514Z,17.30
2024-01-06T00:17:56.185Z,16.80
2024-01-06T00:21:04.678Z,16.60
2024-01-06T00:24:12.963Z,16.40
2024-01-06T00:27:20.084Z,16.90
2024-01-06T00:30:28.921Z,17.90
2024-01-06T00:33:36.348Z,17.50
2024-01-06T00:36:44.503Z,18.20
2024-01-06T00:39:51.386Z,20.60
2024-01-06T00:43:00.678Z,21.80
2024-01-06T00:46:08.563Z,21.70
2024-01-06T00:49:16.921Z,21.70
2024-01-06T00:52:26.356Z,23.30
2024-01-06T00:55:34.417Z,25.20
2024-01-06T00:58:41.983Z,24.60
2024-01-06T01:01:50.584Z,24.80
2024-01-06T01:04:58.991Z,24.70
2024-01-06T01:08:06.119Z,25.10
2024-01-06T01:11:15.110Z,25.10
2024-01-06T01:14:22.215Z,23.50
2024-01-06T01:17:30.388Z,25.00
2024-01-06T01:20:37.241Z,26.00
2024-01-06T01:23:45.868Z,24.80
2024-01-06T01:26:53.488Z,24.70
2024-01-06T01:30:00.799Z,24.60
2024-01-06T01:33:09.817Z,26.20
2024-01-06T01:36:17.871Z,26.50
2024-01-06T01:39:25.283Z,27.50
2024-01-06T01:42:33.858Z,26.90
2024-01-06T01:45:41.755Z,28.20
2024-01-06T01:48:48.681Z,28.70
2024-01-06T01:51:57.947Z,27.50
2024-01-06T01:55:06.032Z,26.20
2024-01-06T01:58:13.569Z,24.20
2024-01-06T02:01:20.894Z,27.70
2024-01-06T02:04:30.232Z,27.60
2024-01-06T02:07:37.603Z,28.90
2024-01-06T02:10:44.758Z,28.10
2024-01-06T02:13:53.285Z,29.10
2024-01-06T02:17:00.572Z,27.50
2024-01-06T02:20:08.646Z,27.40
2024-01-06T02:23:17.311Z,26.50
2024-01-06T02:26:24.665Z,27.40
2024-01-06T02:29:32.017Z,27.00
2024-01-06T02:32:41.527Z,27.00
2024-01-06T02:35:48.950Z,27.00
2024-01-06T02:38:56.534Z,27.70
2024-01-06T02:42:03.482Z,27.50
2024-01-06T02:45:12.256Z,26.60
2024-01-06T02:48:20.430Z,26.40
2024-01-06T02:51:27.282Z,26.20
2024-01-06T02:54:36.455Z,27.10
2024-01-06T02:57:43.907Z,25.00
2024-01-06T03:00:51.006Z,26.90
2024-01-06T03:04:00.121Z,28.90
2024-01-06T03:07:07.870Z,27.60
2024-01-06T03:10:15.648Z,28.90
2024-01-06T03:13:23.894Z,27.40
2024-01-06T03:16:32.319Z,29.40
2024-01-06T03:19:40.071Z,28.00
2024-01-06T03:22:48.894Z,27.30
2024-01-06T03:25:57.181Z,29.00
2024-01-06T03:29:04.102Z,28.70
2024-01-06T03:32:11.824Z,28.10
2024-01-06T03:35:20.799Z,28.80
2024-01-06T03:38:27.794Z,28.80
2024-01-06T03:41:35.690Z,29.30
2024-01-06T03:44:44.315Z,28.60
2024-01-06T03:47:52.137Z,28.80
2024-01-06T03:50:59.912Z,27.80
2024-01-06T03:54:08.572Z,27.90
2024-01-06T03:57:15.874Z,27.70
2024-01-06T04:00:23.766Z,28.40
2024-01-06T04:03:32.982Z,28.90
2024-01-06T04:06:40.794Z,29.40
2024-01-06T04:09:48.690Z,28.00
2024-01-06T04:12:56.793Z,28.00
2024-01-06T04:16:05.632Z,28.40
2024-01-06T04:19:13.201Z,29.10
2024-01-06T04:22:20.808Z,27.60
2024-01-06T04:25:30.013Z,27.10
2024-01-06T04:28:38.083Z,28.10
2024-01-06T04:31:45.008Z,28.70
2024-01-06T04:34:54.225Z,28.00
2024-01-06T04:38:01.717Z,28.80
2024-01-06T04:41:09.473Z,28.20
2024-01-06T04:44:18.542Z,27.80
2024-01-06T04:47:26.000Z,27.50
2024-01-06T04:50:32.773Z,28.50
2024-01-06T04:53:40.079Z,29.70
2024-01-06T04:56:49.306Z,29.60
2024-01-06T04:59:56.754Z,28.90
2024-01-06T05:03:04.089Z,28.20
2024-01-06T05:06:13.168Z,28.10
2024-01-06T05:09:20.038Z,28.20
2024-01-06T05:12:27.842Z,27.00
2024-01-06T05:15:36.245Z,26.70
2024-01-06T05:18:43.885Z,26.50
2024-01-06T05:21:51.316Z,29.00
2024-01-06T05:24:59.688Z,28.10
2024-01-06T05:28:06.954Z,28.80
2024-01-06T05:31:14.732Z,27.50
2024-01-06T05:34:22.464Z,26.90
2024-01-06T05:37:32.199Z,27.00
2024-01-06T05:40:39.756Z,27.60
2024-01-06T05:43:46.975Z,27.00
2024-01-06T05:46:56.067Z,27.50
2024-01-06T05:50:03.559Z,27.20
2024-01-06T05:53:11.268Z,28.40
2024-01-06T05:56:19.891Z,27.80
2024-01-06T05:59:27.744Z,25.60
2024-01-06T06:02:34.938Z,27.20
2024-01-06T06:05:43.639Z,27.20
2024-01-06T06:08:51.689Z,28.30
2024-01-06T06:11:59.032Z,27.70
2024-01-06T06:15:08.310Z,26.10
2024-01-06T06:18:16.112Z,27.30
2024-01-06T06:21:23.751Z,26.90
2024-01-06T06:24:31.449Z,25.30
2024-01-06T06:27:40.894Z,24.90
2024-01-06T06:30:47.897Z,26.30
2024-01-06T06:33:56.616Z,27.70
2024-01-06T06:37:05.707Z,25.70
2024-01-06T06:40:12.647Z,24.90
2024-01-06T06:43:20.801Z,27.40
2024-01-06T06:46:29.474Z,29.20
2024-01-06T06:49:36.800Z,27.90
2024-01-06T06:52:44.672Z,28.60
2024-01-06T06:55:53.448Z,28.70
2024-01-06T06:59:01.355Z,27.90
2024-01-06T07:02:08.836Z,29.10
2024-01-06T07:05:16.533Z,29.00
2024-01-06T07:08:25.466Z,30.50
2024-01-06T07:11:33.564Z,30.50
2024-01-06T07:14:40.846Z,29.90
2024-01-06T07:17:49.302Z,31.50
2024-01-06T07:20:57.036Z,31.10
2024-01-06T07:24:04.478Z,30.90
2024-01-06T07:27:13.433Z,32.80
2024-01-06T07:30:20.692Z,32.40
2024-01-06T07:33:27.961Z,32.70
2024-01-06T07:36:37.780Z,32.40
2024-01-06T07:39:45.140Z,33.00
2024-01-06T07:42:53.011Z,31.90
2024-01-06T07:46:00.673Z,33.30
2024-01-06T07:49:10.394Z,32.80
2024-01-06T07:52:17.671Z,33.10
2024-01-06T07:55:24.685Z,34.50
2024-01-06T07:58:33.630Z,32.80
2024-01-06T08:01:40.683Z,32.80
2024-01-06T08:04:48.042Z,33.90
2024-01-06T08:07:58.487Z,30.10
2024-01-06T08:11:07.647Z,31.10
2024-01-06T08:14:15.552Z,31.90
2024-01-06T08:17:24.719Z,32.20
2024-01-06T08:20:31.644Z,29.90
2024-01-06T08:23:38.958Z,31.30
2024-01-06T08:26:46.715Z,28.70
2024-01-06T08:29:55.083Z,29.80
2024-01-06T08:33:03.588Z,31.50
2024-01-06T08:36:10.817Z,32.00
2024-01-06T08:39:19.546Z,31.60
2024-01-06T08:42:27.342Z,32.20
2024-01-06T08:45:34.728Z,31.30
2024-01-06T08:48:43.330Z,31.40
2024-01-06T08:51:50.570Z,31.50
2024-01-06T08:54:58.469Z,31.40
2024-01-06T08:58:07.367Z,31.10
2024-01-06T09:01:14.981Z,30.90
2024-01-06T09:04:22.705Z,30.50
2024-01-06T09:07:30.871Z,29.90
2024-01-06T09:10:38.277Z,30.50
2024-01-06T09:13:45.962Z,31.10
2024-01-06T09:16:53.339Z,31.00
2024-01-06T09:20:02.431Z,30.60
2024-01-06T09:23:10.332Z,28.90
2024-01-06T09:26:18.062Z,29.30
2024-01-06T09:29:27.349Z,29.60
2024-01-06T09:32:34.769Z,28.30
2024-01-06T09:35:42.160Z,28.40
2024-01-06T09:38:51.355Z,28.80
2024-01-06T09:41:58.772Z,29.20
2024-01-06T09:45:06.394Z,28.30
2024-01-06T09:48:15.273Z,28.80
2024-01-06T09:51:22.659Z,27.70
2024-01-06T09:54:30.208Z,29.30
2024-01-06T09:57:37.555Z,28.70
2024-01-06T10:00:46.791Z,28.90
2024-01-06T10:03:54.839Z,27.20
2024-01-06T10:07:02.208Z,28.70
2024-01-06T10:10:11.536Z,28.00
2024-01-06T10:13:18.929Z,30.50
2024-01-06T10:16:26.462Z,29.10
2024-01-06T10:19:35.775Z,28.90
2024-01-06T10:22:42.671Z,28.20
2024-01-06T10:25:52.935Z,27.20
2024-01-06T10:28:53.181Z,31.40
2024-01-06T10:32:00.560Z,28.00
2024-01-06T10:35:07.879Z,29.60
2024-01-06T10:38:15.686Z,31.20
2024-01-06T10:41:25.298Z,28.00
2024-01-06T10:44:33.746Z,27.40
2024-01-06T10:47:41.040Z,29.10
2024-01-06T10:50:49.527Z,28.40
2024-01-06T10:53:56.791Z,28.80
2024-01-06T10:57:04.342Z,26.60
2024-01-06T11:00:12.976Z,27.70
2024-01-06T11:03:20.859Z,26.40
2024-01-06T11:06:28.206Z,28.00
2024-01-06T11:09:36.402Z,22.70
2024-01-06T11:12:44.097Z,26.00
2024-01-06T11:15:51.805Z,28.20
2024-01-06T11:18:59.202Z,27.20
2024-01-06T11:22:08.182Z,28.10
2024-01-06T11:25:16.479Z,28.60
2024-01-06T11:28:24.407Z,26.90
2024-01-06T11:31:33.432Z,26.20
2024-01-06T11:34:41.375Z,24.20
2024-01-06T11:37:48.772Z,27.80
2024-01-06T11:40:57.877Z,29.30
2024-01-06T11:44:07.014Z,28.80
2024-01-06T11:47:14.110Z,27.10
2024-01-06T11:50:23.145Z,30.40
2024-01-06T11:53:30.516Z,29.00
2024-01-06T11:56:38.723Z,31.30
2024-01-06T11:59:46.992Z,30.40
2024-01-06T12:02:56.441Z,32.40
2024-01-06T12:06:03.841Z,34.10
2024-01-06T12:09:11.887Z,31.90
2024-01-06T12:12:21.702Z,29.80
2024-01-06T12:15:28.939Z,35.20
2024-01-06T12:18:36.671Z,34.20
2024-01-06T12:21:45.167Z,34.50
2024-01-06T12:24:53.082Z,36.10
2024-01-06T12:28:00.609Z,32.60
2024-01-06T12:31:09.669Z,35.90
2024-01-06T12:34:17.529Z,32.80
2024-01-06T12:37:24.843Z,32.90
2024-01-06T12:40:34.024Z,33.80
2024-01-06T12:43:40.962Z,30.20
2024-01-06T12:46:51.742Z,31.40
2024-01-06T12:49:59.992Z,29.60
2024-01-06T12:53:08.968Z,32.90
2024-01-06T12:56:17.141Z,33.50
2024-01-06T12:59:24.535Z,28.80
2024-01-06T13:02:33.248Z,31.90
2024-01-06T13:05:41.318Z,30.30
2024-01-06T13:08:48.480Z,31.30
2024-01-06T13:11:57.414Z,33.70
2024-01-06T13:15:05.782Z,32.10
2024-01-06T13:18:13.223Z,34.40
2024-01-06T13:21:22.190Z,35.70
2024-01-06T13:24:30.589Z,28.50
2024-01-06T13:27:38.572Z,35.80
2024-01-06T13:30:46.165Z,34.70
2024-01-06T13:33:55.155Z,36.40
2024-01-06T13:37:02.452Z,29.70
2024-01-06T13:40:09.891Z,40.30
2024-01-06T13:43:19.266Z,39.60
2024-01-06T13:46:27.126Z,38.70
2024-01-06T13:49:52.551Z,36.20
2024-01-06T13:52:56.750Z,38.30
2024-01-06T13:56:00.192Z,35.00
2024-01-06T13:59:09.960Z,38.60
2024-01-06T14:02:13.459Z,39.40
2024-01-06T14:05:11.462Z,40.10
2024-01-06T14:08:20.368Z,35.70
2024-01-06T14:11:31.135Z,41.90
2024-01-06T14:14:32.242Z,43.80
2024-01-06T14:17:39.187Z,38.30
2024-01-06T14:20:48.749Z,41.20
2024-01-06T14:23:49.374Z,43.60
2024-01-06T14:26:58.016Z,38.80
2024-01-06T14:29:58.196Z,40.80
2024-01-06T14:33:01.331Z,41.60
2024-01-06T14:36:09.201Z,43.10
2024-01-06T14:39:07.528Z,44.50
2024-01-06T14:42:20.363Z,47.50
2024-01-06T14:45:29.404Z,45.90
2024-01-06T14:48:38.609Z,40.50
2024-01-06T14:51:49.042Z,41.00
2024-01-06T14:54:57.748Z,46.50
2024-01-06T14:58:06.931Z,44.30
2024-01-06T15:01:16.479Z,44.60
2024-01-06T15:04:29.753Z,44.20
2024-01-06T15:07:26.674Z,45.50
2024-01-06T15:10:35.558Z,46.00
2024-01-06T15:13:45.709Z,46.50
2024-01-06T15:17:02.330Z,44.70
2024-01-06T15:19:59.534Z,45.70
2024-01-06T15:23:09.486Z,41.50
2024-01-06T15:26:17.648Z,40.90
2024-01-06T15:29:28.691Z,40.50
2024-01-06T15:32:38.585Z,46.30
2024-01-06T15:35:46.842Z,46.30
2024-01-06T15:38:55.776Z,44.90
2024-01-06T15:42:04.529Z,43.80
2024-01-06T15:45:06.994Z,50.10
2024-01-06T15:48:15.751Z,45.90
2024-01-06T15:51:24.731Z,46.60
2024-01-06T15:54:35.112Z,45.20
2024-01-06T15:57:43.429Z,30.80
2024-01-06T16:00:52.031Z,50.20
2024-01-06T16:04:02.090Z,41.00
2024-01-06T16:07:11.400Z,47.10
2024-01-06T16:10:19.760Z,44.40
2024-01-06T16:13:30.843Z,47.30
2024-01-06T16:16:39.105Z,45.00
2024-01-06T16:19:47.872Z,47.40
2024-01-06T16:22:58.282Z,46.70
2024-01-06T16:26:08.705Z,45.50
2024-01-06T16:29:06.864Z,44.60
2024-01-06T16:32:15.621Z,31.70
2024-01-06T16:35:24.810Z,48.20
2024-01-06T16:38:33.391Z,40.80
2024-01-06T16:41:42.059Z,45.60
2024-01-06T16:44:51.950Z,44.00
2024-01-06T16:48:00.830Z,46.20
2024-01-06T16:51:09.281Z,45.00
2024-01-06T16:54:19.030Z,44.60
2024-01-06T16:57:27.395Z,46.20
2024-01-06T17:00:35.864Z,48.50
2024-01-06T17:03:45.362Z,48.40
2024-01-06T17:06:56.620Z,44.80
2024-01-06T17:09:55.287Z,44.50
2024-01-06T17:13:03.975Z,36.70
2024-01-06T17:16:14.461Z,41.60
2024-01-06T17:19:24.229Z,43.40
2024-01-06T17:22:32.199Z,41.10
2024-01-06T17:25:42.304Z,43.20
2024-01-06T17:28:51.183Z,39.90
2024-01-06T17:31:59.133Z,38.80
2024-01-06T17:35:09.254Z,36.10
2024-01-06T17:38:17.563Z,40.10
2024-01-06T17:41:29.254Z,39.70
2024-01-06T17:44:31.248Z,38.10
2024-01-06T17:47:39.965Z,36.50
2024-01-06T17:50:48.134Z,35.90
2024-01-06T17:53:56.492Z,36.00
2024-01-06T17:57:07.097Z,36.40
2024-01-06T18:00:16.413Z,39.70
2024-01-06T18:03:24.775Z,36.30
2024-01-06T18:06:34.870Z,35.30
2024-01-06T18:09:43.802Z,29.30
2024-01-06T18:12:52.677Z,32.80
2024-01-06T18:16:02.963Z,31.10
2024-01-06T18:19:11.339Z,31.10
2024-01-06T18:22:19.745Z,31.60
2024-01-06T18:25:30.284Z,33.00
2024-01-06T18:28:39.037Z,27.30
2024-01-06T18:31:48.535Z,28.20
2024-01-06T18:34:59.948Z,28.00
2024-01-06T18:38:08.335Z,27.60
2024-01-06T18:41:18.031Z,26.50
2024-01-06T18:44:27.641Z,29.00
2024-01-06T18:47:30.092Z,28.90
2024-01-06T18:50:39.557Z,26.10
2024-01-06T18:53:49.899Z,30.10
2024-01-06T18:56:50.622Z,27.20
2024-01-06T18:59:50.221Z,32.20
2024-01-06T19:03:01.355Z,34.00
2024-01-06T19:06:01.892Z,35.00
2024-01-06T19:09:11.910Z,33.80
2024-01-06T19:12:22.495Z,27.80
2024-01-06T19:15:22.785Z,30.70
2024-01-06T19:18:33.093Z,32.80
2024-01-06T19:21:43.207Z,29.50
2024-01-06T19:24:54.006Z,30.10
2024-01-06T19:27:54.657Z,30.20
2024-01-06T19:31:04.608Z,29.20
2024-01-06T19:34:14.287Z,27.50
2024-01-06T19:37:15.672Z,29.70
2024-01-06T19:40:25.230Z,27.40
2024-01-06T19:43:36.315Z,26.20
2024-01-06T19:46:37.030Z,26.10
2024-01-06T19:49:47.894Z,25.70
2024-01-06T19:52:57.905Z,25.20
2024-01-06T19:55:58.999Z,25.90
2024-01-06T19:59:09.794Z,22.50
2024-01-06T20:02:09.582Z,23.60
2024-01-06T20:05:20.177Z,25.80
2024-01-06T20:08:21.051Z,23.50
2024-01-06T20:11:30.958Z,22.40
2024-01-06T20:14:32.261Z,23.70
2024-01-06T20:17:32.376Z,23.10
2024-01-06T20:20:42.755Z,23.70
2024-01-06T20:23:53.056Z,23.00
2024-01-06T20:26:59.586Z,23.40
2024-01-06T20:30:09.291Z,24.00
2024-01-06T20:33:10.561Z,22.30
2024-01-06T20:36:22.528Z,25.40
2024-01-06T20:39:33.282Z,22.20
2024-01-06T20:42:32.774Z,24.90
2024-01-06T20:45:43.547Z,25.20
2024-01-06T20:48:44.087Z,24.90
2024-01-06T20:51:53.693Z,25.50
2024-01-06T20:54:54.805Z,24.40
2024-01-06T20:57:55.268Z,23.10
2024-01-06T21:01:06.264Z,22.00
2024-01-06T21:04:16.692Z,23.60
2024-01-06T21:07:24.113Z,25.00
2024-01-06T21:10:34.858Z,25.10
2024-01-06T21:13:35.910Z,21.90
2024-01-06T21:16:45.448Z,23.50
2024-01-06T21:19:46.758Z,23.00
2024-01-06T21:22:57.459Z,23.20
2024-01-06T21:25:57.480Z,22.90
2024-01-06T21:28:58.313Z,20.40
2024-01-06T21:32:08.632Z,19.30
2024-01-06T21:35:19.586Z,18.50
2024-01-06T21:38:20.642Z,16.90
2024-01-06T21:41:20.333Z,17.30
2024-01-06T21:44:21.110Z,16.30
2024-01-06T21:47:21.967Z,16.10
2024-01-06T21:50:31.540Z,15.40
2024-01-06T21:53:42.271Z,13.10
2024-01-06T21:56:52.510Z,14.40
2024-01-06T21:59:53.569Z,14.20
2024-01-06T22:03:00.075Z,13.50
2024-01-06T22:06:10.867Z,13.70
2024-01-06T22:09:13.336Z,13.00
2024-01-06T22:12:14.003Z,13.40
2024-01-06T22:15:13.618Z,13.40
2024-01-06T22:18:14.843Z,13.30
2024-01-06T22:21:25.302Z,13.20
2024-01-06T22:24:35.004Z,12.60
2024-01-06T22:27:44.559Z,13.00
2024-01-06T22:30:45.030Z,11.10
2024-01-06T22:33:54.648Z,13.60
2024-01-06T22:37:04.988Z,13.00
2024-01-06T22:40:05.369Z,13.30
2024-01-06T22:43:15.526Z,13.20
2024-01-06T22:46:26.406Z,12.00
2024-01-06T22:49:28.253Z,12.90
2024-01-06T22:52:37.757Z,12.70
2024-01-06T22:55:47.883Z,12.50
2024-01-06T22:58:48.290Z,12.10
2024-01-06T23:01:57.524Z,12.10
2024-01-06T23:05:07.697Z,11.50
2024-01-06T23:08:18.670Z,12.10
2024-01-06T23:11:28.423Z,11.90
2024-01-06T23:14:38.606Z,11.60
2024-01-06T23:17:49.156Z,9.30
2024-01-06T23:20:50.245Z,11.90
2024-01-06T23:23:49.957Z,12.60
2024-01-06T23:27:00.407Z,12.30
2024-01-06T23:30:00.986Z,12.60
2024-01-06T23:33:01.263Z,11.60
2024-01-06T23:36:10.894Z,10.90
2024-01-06T23:39:10.671Z,12.40
2024-01-06T23:42:21.006Z,10.90
2024-01-06T23:45:31.354Z,11.70
2024-01-06T23:48:42.619Z,9.00
2024-01-06T23:51:52.542Z,11.00
2024-01-06T23:55:02.734Z,13.10
2024-01-06T23:58:12.235Z,14.10
